createdAt,value
2019-06-27T00:01:45.681Z,12.37
2019-06-27T00:06:46.777Z,15.20
2019-06-27T00:11:47.873Z,10.50
2019-06-27T00:16:51.220Z,20.00
2019-06-27T00:21:52.436Z,14.87
2019-06-27T00:26:57.466Z,15.10
2019-06-27T00:31:56.660Z,13.03
2019-06-27T00:36:57.780Z,13.73
2019-06-27T00:41:58.904Z,11.53
2019-06-27T00:47:00.001Z,12.43
2019-06-27T00:52:01.296Z,16.07
2019-06-27T00:57:13.645Z,11.27
2019-06-27T01:02:06.483Z,12.70
2019-06-27T01:07:07.576Z,13.33
2019-06-27T01:12:08.789Z,12.97
2019-06-27T01:17:09.881Z,12.43
2019-06-27T01:22:11.104Z,10.83
2019-06-27T01:27:12.186Z,13.03
2019-06-27T01:32:13.314Z,13.63
2019-06-27T01:37:14.615Z,15.17
2019-06-27T01:42:15.829Z,13.47
2019-06-27T01:47:16.951Z,12.93
2019-06-27T01:52:18.132Z,13.97
2019-06-27T01:57:19.229Z,14.47
2019-06-27T02:02:20.332Z,15.93
2019-06-27T02:07:21.433Z,14.77
2019-06-27T02:12:22.533Z,12.23
2019-06-27T02:17:23.624Z,13.73
2019-06-27T02:22:24.728Z,16.33
2019-06-27T02:27:26.655Z,12.30
2019-06-27T02:32:27.781Z,14.07
2019-06-27T02:37:28.868Z,16.57
2019-06-27T02:42:29.990Z,12.13
2019-06-27T02:47:32.699Z,16.17
2019-06-27T02:52:33.804Z,13.50
2019-06-27T02:57:34.903Z,13.63
2019-06-27T03:02:36.296Z,16.97
2019-06-27T03:07:37.409Z,13.93
2019-06-27T03:12:38.608Z,16.40
2019-06-27T03:17:39.802Z,22.10
2019-06-27T03:22:40.993Z,23.07
2019-06-27T03:27:42.085Z,27.90
2019-06-27T03:32:43.214Z,20.60
2019-06-27T03:37:44.624Z,24.90
2019-06-27T03:42:48.885Z,26.80
2019-06-27T03:47:51.461Z,23.90
2019-06-27T03:52:52.558Z,23.00
2019-06-27T03:57:53.653Z,21.07
2019-06-27T04:02:54.857Z,22.33
2019-06-27T04:07:59.334Z,17.53
2019-06-27T04:13:00.437Z,18.33
2019-06-27T04:18:01.626Z,14.97
2019-06-27T04:23:03.033Z,16.13
2019-06-27T04:28:04.348Z,14.83
2019-06-27T04:33:05.551Z,15.83
2019-06-27T04:38:06.673Z,12.93
2019-06-27T04:43:09.285Z,16.23
2019-06-27T04:48:10.465Z,15.77
2019-06-27T04:53:11.569Z,15.37
2019-06-27T04:58:12.709Z,17.73
2019-06-27T05:03:13.848Z,22.50
2019-06-27T05:08:15.088Z,39.07
2019-06-27T05:13:16.424Z,23.43
2019-06-27T05:18:17.634Z,18.83
2019-06-27T05:23:18.826Z,17.03
2019-06-27T05:28:19.926Z,19.90
2019-06-27T05:33:21.145Z,17.90
2019-06-27T05:38:23.723Z,22.23
2019-06-27T05:43:24.844Z,19.40
2019-06-27T05:48:25.939Z,18.73
2019-06-27T05:53:27.041Z,17.33
2019-06-27T05:58:28.129Z,17.47
2019-06-27T06:03:29.266Z,15.80
2019-06-27T06:08:30.360Z,18.10
2019-06-27T06:13:31.452Z,17.63
2019-06-27T06:18:32.555Z,17.40
2019-06-27T06:23:33.659Z,18.77
2019-06-27T06:28:35.551Z,20.00
2019-06-27T06:33:36.676Z,25.00
2019-06-27T06:38:37.788Z,18.83
2019-06-27T06:43:38.930Z,17.37
2019-06-27T06:48:40.209Z,21.37
2019-06-27T06:53:41.340Z,18.27
2019-06-27T06:58:42.553Z,17.57
2019-06-27T07:03:43.650Z,17.33
2019-06-27T07:08:44.765Z,23.83
2019-06-27T07:13:48.666Z,20.67
2019-06-27T07:18:49.779Z,21.37
2019-06-27T07:23:50.924Z,20.60
2019-06-27T07:28:52.012Z,21.27
2019-06-27T07:33:53.144Z,16.27
2019-06-27T07:38:54.244Z,14.17
2019-06-27T07:43:55.355Z,18.80
2019-06-27T07:48:56.449Z,19.03
2019-06-27T07:53:58.849Z,19.00
2019-06-27T07:58:59.956Z,23.03
2019-06-27T08:04:01.118Z,21.47
2019-06-27T08:09:02.938Z,17.63
2019-06-27T08:14:04.033Z,16.80
2019-06-27T08:19:05.128Z,15.17
2019-06-27T08:24:06.242Z,14.33
2019-06-27T08:29:07.341Z,18.00
2019-06-27T08:34:08.564Z,15.93
2019-06-27T08:39:09.684Z,18.23
2019-06-27T08:44:10.801Z,17.40
2019-06-27T08:49:11.894Z,14.50
2019-06-27T08:54:12.990Z,14.70
2019-06-27T08:59:16.900Z,16.90
2019-06-27T09:04:18.026Z,16.43
2019-06-27T09:09:19.219Z,14.47
2019-06-27T09:14:20.395Z,14.77
2019-06-27T09:19:21.484Z,14.23
2019-06-27T09:24:22.657Z,13.87
2019-06-27T09:29:23.913Z,15.50
2019-06-27T09:34:25.087Z,17.13
2019-06-27T09:39:27.177Z,15.17
2019-06-27T09:44:28.672Z,13.57
2019-06-27T09:49:29.780Z,15.70
2019-06-27T09:54:30.873Z,14.23
2019-06-27T09:59:31.987Z,13.77
2019-06-27T10:04:33.173Z,16.17
2019-06-27T10:09:34.297Z,13.85
2019-06-27T10:14:35.511Z,13.58
2019-06-27T10:19:36.794Z,12.58
2019-06-27T10:24:37.970Z,12.65
2019-06-27T10:29:39.561Z,13.72
2019-06-27T10:34:40.677Z,12.58
2019-06-27T10:39:41.795Z,12.95
2019-06-27T10:44:43.010Z,14.03
2019-06-27T10:49:44.211Z,13.78
2019-06-27T10:54:45.322Z,13.53
2019-06-27T10:59:46.597Z,15.43
2019-06-27T11:04:47.796Z,15.23
2019-06-27T11:09:50.301Z,12.03
2019-06-27T11:14:58.982Z,11.35
2019-06-27T11:19:55.596Z,11.57
2019-06-27T11:24:56.718Z,11.33
2019-06-27T11:29:59.177Z,11.53
2019-06-27T11:35:00.531Z,12.03
2019-06-27T11:40:02.261Z,9.50
2019-06-27T11:45:04.768Z,9.98
2019-06-27T11:50:07.245Z,11.68
2019-06-27T11:55:08.823Z,15.53
2019-06-27T12:00:10.218Z,9.70
2019-06-27T12:05:11.422Z,13.20
2019-06-27T12:10:15.142Z,10.58
2019-06-27T12:15:18.293Z,9.05
2019-06-27T12:20:19.619Z,10.38
2019-06-27T12:25:20.728Z,11.80
2019-06-27T12:30:21.858Z,10.43
2019-06-27T12:35:23.064Z,12.30
2019-06-27T12:40:24.459Z,9.40
2019-06-27T12:45:26.843Z,10.90
2019-06-27T12:50:27.975Z,12.58
2019-06-27T12:55:29.520Z,10.25
2019-06-27T13:00:30.719Z,9.48
2019-06-27T13:05:31.855Z,9.38
2019-06-27T13:10:35.808Z,11.10
2019-06-27T13:15:37.408Z,12.98
2019-06-27T13:20:38.563Z,9.38
2019-06-27T13:25:39.659Z,13.13
2019-06-27T13:30:40.761Z,8.83
2019-06-27T13:35:41.867Z,11.35
2019-06-27T13:40:43.079Z,8.10
2019-06-27T13:45:46.625Z,13.35
2019-06-27T13:50:47.769Z,7.25
2019-06-27T13:55:48.872Z,9.00
2019-06-27T14:00:50.081Z,7.42
2019-06-27T14:05:51.188Z,9.30
2019-06-27T14:10:52.297Z,8.20
2019-06-27T14:15:53.403Z,7.10
2019-06-27T14:20:57.595Z,7.50
2019-06-27T14:25:58.701Z,7.95
2019-06-27T14:31:02.617Z,11.57
2019-06-27T14:36:03.829Z,7.83
2019-06-27T14:41:04.933Z,8.13
2019-06-27T14:46:06.153Z,6.92
2019-06-27T14:51:07.256Z,6.60
2019-06-27T14:56:08.363Z,8.38
2019-06-27T15:01:10.080Z,7.47
2019-06-27T15:06:12.962Z,6.05
2019-06-27T15:11:14.060Z,6.10
2019-06-27T15:16:15.165Z,6.08
2019-06-27T15:21:16.364Z,6.15
2019-06-27T15:26:17.480Z,7.50
2019-06-27T15:31:22.187Z,6.75
2019-06-27T15:36:23.218Z,6.17
2019-06-27T15:41:24.318Z,8.13
2019-06-27T15:46:25.539Z,7.12
2019-06-27T15:51:26.651Z,6.45
2019-06-27T15:56:27.756Z,7.45
2019-06-27T16:01:28.848Z,6.83
2019-06-27T16:06:30.086Z,11.55
2019-06-27T16:11:31.247Z,7.22
2019-06-27T16:16:32.943Z,9.25
2019-06-27T16:21:34.180Z,7.92
2019-06-27T16:26:35.375Z,6.90
2019-06-27T16:31:36.491Z,6.20
2019-06-27T16:36:37.610Z,8.48
2019-06-27T16:41:38.740Z,6.40
2019-06-27T16:46:39.836Z,12.50
2019-06-27T16:51:40.933Z,10.13
2019-06-27T16:56:42.055Z,7.83
2019-06-27T17:01:43.138Z,8.83
2019-06-27T17:06:44.239Z,7.45
2019-06-27T17:11:45.435Z,7.92
2019-06-27T17:16:46.731Z,7.35
2019-06-27T17:21:47.833Z,8.23
2019-06-27T17:26:49.625Z,9.18
2019-06-27T17:31:50.727Z,8.20
2019-06-27T17:36:57.426Z,8.78
2019-06-27T17:41:55.022Z,10.80
2019-06-27T17:46:56.340Z,7.75
2019-06-27T17:51:57.541Z,8.53
2019-06-27T17:56:58.659Z,8.37
2019-06-27T18:01:59.876Z,8.10
2019-06-27T18:07:13.385Z,7.97
2019-06-27T18:12:04.088Z,7.33
2019-06-27T18:17:05.279Z,6.97
2019-06-27T18:22:07.969Z,6.93
2019-06-27T18:27:09.081Z,5.57
2019-06-27T18:32:10.191Z,9.47
2019-06-27T18:37:11.391Z,6.10
2019-06-27T18:42:12.521Z,6.90
2019-06-27T18:47:13.711Z,6.17
2019-06-27T18:52:14.954Z,4.83
2019-06-27T18:57:16.050Z,5.70
2019-06-27T19:02:17.292Z,4.87
2019-06-27T19:07:18.403Z,6.43
2019-06-27T19:12:19.607Z,4.50
2019-06-27T19:17:20.793Z,6.80
2019-06-27T19:22:40.266Z,5.77
2019-06-27T19:27:41.385Z,5.17
2019-06-27T19:32:42.514Z,4.00
2019-06-27T19:37:43.641Z,4.13
2019-06-27T19:42:44.764Z,4.90
2019-06-27T19:47:45.888Z,3.83
2019-06-27T19:52:47.108Z,4.93
2019-06-27T19:57:48.220Z,4.30
2019-06-27T20:02:49.529Z,3.70
2019-06-27T20:07:50.646Z,5.07
2019-06-27T20:12:53.337Z,2.93
2019-06-27T20:17:54.451Z,3.93
2019-06-27T20:22:55.570Z,9.83
2019-06-27T20:27:56.693Z,1.80
2019-06-27T20:32:57.822Z,3.27
2019-06-27T20:37:59.010Z,2.90
2019-06-27T20:43:00.371Z,6.43
2019-06-27T20:48:01.542Z,2.37
2019-06-27T20:53:02.721Z,3.97
2019-06-27T20:58:03.914Z,5.83
2019-06-27T21:03:05.046Z,5.70
2019-06-27T21:08:06.228Z,4.23
2019-06-27T21:13:07.353Z,4.23
2019-06-27T21:18:08.443Z,3.37
2019-06-27T21:23:09.568Z,3.20
2019-06-27T21:28:10.864Z,3.67
2019-06-27T21:33:12.063Z,2.47
2019-06-27T21:38:13.182Z,3.93
2019-06-27T21:43:15.619Z,3.43
2019-06-27T21:48:16.735Z,2.50
2019-06-27T21:53:17.940Z,3.00
2019-06-27T21:58:19.045Z,3.57
2019-06-27T22:03:20.240Z,1.80
2019-06-27T22:08:21.341Z,3.10
2019-06-27T22:13:22.446Z,2.50
2019-06-27T22:18:23.537Z,2.80
2019-06-27T22:23:24.635Z,5.07
2019-06-27T22:28:25.749Z,2.83
2019-06-27T22:33:26.845Z,3.03
2019-06-27T22:38:46.471Z,2.50
2019-06-27T22:44:06.248Z,2.70
2019-06-27T22:49:07.768Z,4.30
2019-06-27T22:54:10.771Z,2.70
2019-06-27T22:59:11.879Z,3.07
2019-06-27T23:04:12.972Z,2.57
2019-06-27T23:09:14.158Z,3.67
2019-06-27T23:14:15.259Z,2.70
2019-06-27T23:19:16.496Z,1.80
2019-06-27T23:24:17.684Z,5.30
2019-06-27T23:29:18.788Z,4.30
2019-06-27T23:34:19.925Z,2.60
2019-06-27T23:39:21.021Z,2.80
2019-06-27T23:44:25.153Z,5.17
2019-06-27T23:49:26.267Z,3.53
2019-06-27T23:54:30.172Z,3.13
2019-06-27T23:59:31.447Z,3.13
